sensor_id;sensor_type;location;lat;lon;timestamp;P1;durP1;ratioP1;P2;durP2;ratioP2
27013;SDS011;14556;52.222;4.510;2023-07-13T00:01:32;7.63;;;1.30;;
27013;SDS011;14556;52.222;4.510;2023-07-13T00:03:59;3.50;;;0.93;;
27013;SDS011;14556;52.222;4.510;2023-07-13T00:06:26;1.37;;;0.83;;
27013;SDS011;14556;52.222;4.510;2023-07-13T00:08:56;3.53;;;1.50;;
27013;SDS011;14556;52.222;4.510;2023-07-13T00:11:23;1.83;;;0.63;;
27013;SDS011;14556;52.222;4.510;2023-07-13T00:13:49;5.07;;;1.07;;
27013;SDS011;14556;52.222;4.510;2023-07-13T00:16:17;3.77;;;0.87;;
27013;SDS011;14556;52.222;4.510;2023-07-13T00:18:45;4.63;;;0.90;;
27013;SDS011;14556;52.222;4.510;2023-07-13T00:21:12;2.10;;;0.93;;
27013;SDS011;14556;52.222;4.510;2023-07-13T00:23:40;2.50;;;0.90;;
27013;SDS011;14556;52.222;4.510;2023-07-13T00:26:08;2.17;;;0.93;;
27013;SDS011;14556;52.222;4.510;2023-07-13T00:28:37;3.20;;;0.60;;
27013;SDS011;14556;52.222;4.510;2023-07-13T00:31:03;2.37;;;0.50;;
27013;SDS011;14556;52.222;4.510;2023-07-13T00:33:34;2.07;;;0.67;;
27013;SDS011;14556;52.222;4.510;2023-07-13T00:36:00;1.73;;;0.70;;
27013;SDS011;14556;52.222;4.510;2023-07-13T00:38:27;1.53;;;0.50;;
27013;SDS011;14556;52.222;4.510;2023-07-13T00:40:54;3.50;;;0.90;;
27013;SDS011;14556;52.222;4.510;2023-07-13T00:43:21;2.33;;;0.80;;
27013;SDS011;14556;52.222;4.510;2023-07-13T00:48:17;1.53;;;0.73;;
27013;SDS011;14556;52.222;4.510;2023-07-13T00:50:48;3.50;;;0.60;;
27013;SDS011;14556;52.222;4.510;2023-07-13T00:53:18;6.03;;;1.13;;
27013;SDS011;14556;52.222;4.510;2023-07-13T00:55:46;3.33;;;0.80;;
27013;SDS011;14556;52.222;4.510;2023-07-13T00:58:15;3.37;;;0.93;;
27013;SDS011;14556;52.222;4.510;2023-07-13T01:00:42;1.67;;;0.73;;
27013;SDS011;14556;52.222;4.510;2023-07-13T01:03:08;1.63;;;0.80;;
27013;SDS011;14556;52.222;4.510;2023-07-13T01:05:36;3.67;;;0.83;;
27013;SDS011;14556;52.222;4.510;2023-07-13T01:08:03;1.13;;;0.60;;
27013;SDS011;14556;52.222;4.510;2023-07-13T01:10:32;2.73;;;0.80;;
27013;SDS011;14556;52.222;4.510;2023-07-13T01:13:08;1.07;;;0.40;;
27013;SDS011;14556;52.222;4.510;2023-07-13T01:15:38;2.33;;;0.53;;
27013;SDS011;14556;52.222;4.510;2023-07-13T01:18:10;2.77;;;0.70;;
27013;SDS011;14556;52.222;4.510;2023-07-13T01:20:38;3.10;;;0.80;;
27013;SDS011;14556;52.222;4.510;2023-07-13T01:23:06;1.33;;;0.67;;
27013;SDS011;14556;52.222;4.510;2023-07-13T01:25:35;0.70;;;0.60;;
27013;SDS011;14556;52.222;4.510;2023-07-13T01:28:04;1.43;;;0.60;;
27013;SDS011;14556;52.222;4.510;2023-07-13T01:30:31;2.43;;;0.93;;
27013;SDS011;14556;52.222;4.510;2023-07-13T01:32:58;4.47;;;0.70;;
27013;SDS011;14556;52.222;4.510;2023-07-13T01:35:25;2.83;;;0.73;;
27013;SDS011;14556;52.222;4.510;2023-07-13T01:37:53;3.53;;;0.87;;
27013;SDS011;14556;52.222;4.510;2023-07-13T01:40:20;1.10;;;0.50;;
27013;SDS011;14556;52.222;4.510;2023-07-13T01:42:47;1.77;;;0.80;;
27013;SDS011;14556;52.222;4.510;2023-07-13T01:45:13;0.60;;;0.53;;
27013;SDS011;14556;52.222;4.510;2023-07-13T01:47:40;0.90;;;0.40;;
27013;SDS011;14556;52.222;4.510;2023-07-13T01:50:07;0.67;;;0.50;;
27013;SDS011;14556;52.222;4.510;2023-07-13T01:52:34;3.53;;;0.63;;
27013;SDS011;14556;52.222;4.510;2023-07-13T01:55:01;1.53;;;0.60;;
27013;SDS011;14556;52.222;4.510;2023-07-13T01:57:28;1.77;;;0.70;;
27013;SDS011;14556;52.222;4.510;2023-07-13T01:59:54;1.63;;;0.70;;
27013;SDS011;14556;52.222;4.510;2023-07-13T02:02:21;4.30;;;0.90;;
27013;SDS011;14556;52.222;4.510;2023-07-13T02:04:48;1.27;;;0.70;;
27013;SDS011;14556;52.222;4.510;2023-07-13T02:07:14;1.03;;;0.60;;
27013;SDS011;14556;52.222;4.510;2023-07-13T02:09:41;3.70;;;0.50;;
27013;SDS011;14556;52.222;4.510;2023-07-13T02:12:08;1.77;;;0.70;;
27013;SDS011;14556;52.222;4.510;2023-07-13T02:14:35;2.17;;;0.53;;
27013;SDS011;14556;52.222;4.510;2023-07-13T02:17:01;1.30;;;0.57;;
27013;SDS011;14556;52.222;4.510;2023-07-13T02:19:28;1.90;;;0.73;;
27013;SDS011;14556;52.222;4.510;2023-07-13T02:21:54;4.33;;;0.70;;
27013;SDS011;14556;52.222;4.510;2023-07-13T02:24:21;1.87;;;0.70;;
27013;SDS011;14556;52.222;4.510;2023-07-13T02:26:48;3.30;;;0.67;;
27013;SDS011;14556;52.222;4.510;2023-07-13T02:29:14;2.17;;;0.60;;
27013;SDS011;14556;52.222;4.510;2023-07-13T02:31:41;4.67;;;0.50;;
27013;SDS011;14556;52.222;4.510;2023-07-13T02:34:08;1.33;;;0.70;;
27013;SDS011;14556;52.222;4.510;2023-07-13T02:36:34;0.90;;;0.50;;
27013;SDS011;14556;52.222;4.510;2023-07-13T02:39:02;1.40;;;0.57;;
27013;SDS011;14556;52.222;4.510;2023-07-13T02:41:30;2.80;;;0.80;;
27013;SDS011;14556;52.222;4.510;2023-07-13T02:43:59;2.83;;;1.17;;
27013;SDS011;14556;52.222;4.510;2023-07-13T02:46:33;0.87;;;0.60;;
27013;SDS011;14556;52.222;4.510;2023-07-13T02:49:02;1.40;;;0.53;;
27013;SDS011;14556;52.222;4.510;2023-07-13T02:51:29;2.43;;;0.87;;
27013;SDS011;14556;52.222;4.510;2023-07-13T02:53:56;1.00;;;0.73;;
27013;SDS011;14556;52.222;4.510;2023-07-13T02:56:23;1.87;;;0.70;;
27013;SDS011;14556;52.222;4.510;2023-07-13T02:58:52;1.93;;;0.70;;
27013;SDS011;14556;52.222;4.510;2023-07-13T03:01:20;1.53;;;1.03;;
27013;SDS011;14556;52.222;4.510;2023-07-13T03:03:48;1.13;;;1.03;;
27013;SDS011;14556;52.222;4.510;2023-07-13T03:06:15;2.97;;;0.90;;
27013;SDS011;14556;52.222;4.510;2023-07-13T03:08:43;2.53;;;0.90;;
27013;SDS011;14556;52.222;4.510;2023-07-13T03:11:11;3.43;;;0.83;;
27013;SDS011;14556;52.222;4.510;2023-07-13T03:13:40;3.80;;;1.07;;
27013;SDS011;14556;52.222;4.510;2023-07-13T03:16:08;1.50;;;0.87;;
27013;SDS011;14556;52.222;4.510;2023-07-13T03:18:37;4.67;;;1.00;;
27013;SDS011;14556;52.222;4.510;2023-07-13T03:21:04;3.30;;;1.17;;
27013;SDS011;14556;52.222;4.510;2023-07-13T03:23:31;3.47;;;1.00;;
27013;SDS011;14556;52.222;4.510;2023-07-13T03:26:17;1.60;;;0.90;;
27013;SDS011;14556;52.222;4.510;2023-07-13T03:28:45;3.23;;;1.17;;
27013;SDS011;14556;52.222;4.510;2023-07-13T03:31:16;3.07;;;1.07;;
27013;SDS011;14556;52.222;4.510;2023-07-13T03:33:48;2.67;;;0.83;;
27013;SDS011;14556;52.222;4.510;2023-07-13T03:36:19;4.57;;;1.13;;
27013;SDS011;14556;52.222;4.510;2023-07-13T03:38:58;3.20;;;0.90;;
27013;SDS011;14556;52.222;4.510;2023-07-13T03:41:26;6.20;;;1.70;;
27013;SDS011;14556;52.222;4.510;2023-07-13T03:43:53;2.60;;;1.30;;
27013;SDS011;14556;52.222;4.510;2023-07-13T03:46:20;4.43;;;1.07;;
27013;SDS011;14556;52.222;4.510;2023-07-13T03:48:47;1.50;;;0.93;;
27013;SDS011;14556;52.222;4.510;2023-07-13T03:51:14;5.30;;;1.10;;
27013;SDS011;14556;52.222;4.510;2023-07-13T03:53:43;5.40;;;1.20;;
27013;SDS011;14556;52.222;4.510;2023-07-13T03:56:11;5.50;;;1.27;;
27013;SDS011;14556;52.222;4.510;2023-07-13T03:58:40;5.63;;;1.33;;
27013;SDS011;14556;52.222;4.510;2023-07-13T04:01:08;8.83;;;1.43;;
27013;SDS011;14556;52.222;4.510;2023-07-13T04:03:36;2.87;;;0.90;;
27013;SDS011;14556;52.222;4.510;2023-07-13T04:06:04;3.27;;;1.07;;
27013;SDS011;14556;52.222;4.510;2023-07-13T04:08:33;4.07;;;1.37;;
27013;SDS011;14556;52.222;4.510;2023-07-13T04:11:01;1.90;;;1.00;;
27013;SDS011;14556;52.222;4.510;2023-07-13T04:13:29;3.00;;;1.07;;
27013;SDS011;14556;52.222;4.510;2023-07-13T04:15:56;3.93;;;1.00;;
27013;SDS011;14556;52.222;4.510;2023-07-13T04:18:22;3.20;;;1.10;;
27013;SDS011;14556;52.222;4.510;2023-07-13T04:20:50;2.50;;;1.20;;
27013;SDS011;14556;52.222;4.510;2023-07-13T04:23:17;1.40;;;1.23;;
27013;SDS011;14556;52.222;4.510;2023-07-13T04:25:48;2.60;;;0.73;;
27013;SDS011;14556;52.222;4.510;2023-07-13T04:28:16;3.37;;;1.33;;
27013;SDS011;14556;52.222;4.510;2023-07-13T04:30:44;3.47;;;1.40;;
27013;SDS011;14556;52.222;4.510;2023-07-13T04:33:10;3.07;;;1.00;;
27013;SDS011;14556;52.222;4.510;2023-07-13T04:35:37;2.73;;;1.30;;
27013;SDS011;14556;52.222;4.510;2023-07-13T04:38:04;4.30;;;1.23;;
27013;SDS011;14556;52.222;4.510;2023-07-13T04:40:32;5.17;;;1.10;;
27013;SDS011;14556;52.222;4.510;2023-07-13T04:42:58;3.43;;;1.20;;
27013;SDS011;14556;52.222;4.510;2023-07-13T04:45:25;4.23;;;1.40;;
27013;SDS011;14556;52.222;4.510;2023-07-13T04:47:52;1.90;;;1.10;;
27013;SDS011;14556;52.222;4.510;2023-07-13T04:50:18;4.87;;;1.40;;
27013;SDS011;14556;52.222;4.510;2023-07-13T04:52:52;2.90;;;1.03;;
27013;SDS011;14556;52.222;4.510;2023-07-13T04:55:19;3.67;;;1.00;;
27013;SDS011;14556;52.222;4.510;2023-07-13T04:57:46;1.97;;;1.20;;
27013;SDS011;14556;52.222;4.510;2023-07-13T05:00:13;1.50;;;0.83;;
27013;SDS011;14556;52.222;4.510;2023-07-13T05:02:43;6.43;;;1.13;;
27013;SDS011;14556;52.222;4.510;2023-07-13T05:05:12;2.40;;;0.97;;
27013;SDS011;14556;52.222;4.510;2023-07-13T05:07:39;1.73;;;1.20;;
27013;SDS011;14556;52.222;4.510;2023-07-13T05:10:06;5.77;;;1.13;;
27013;SDS011;14556;52.222;4.510;2023-07-13T05:12:33;3.53;;;1.40;;
27013;SDS011;14556;52.222;4.510;2023-07-13T05:15:00;2.33;;;1.20;;
27013;SDS011;14556;52.222;4.510;2023-07-13T05:17:28;2.67;;;0.80;;
27013;SDS011;14556;52.222;4.510;2023-07-13T05:19:54;1.50;;;0.90;;
27013;SDS011;14556;52.222;4.510;2023-07-13T05:22:21;3.07;;;1.40;;
27013;SDS011;14556;52.222;4.510;2023-07-13T05:24:48;1.87;;;1.00;;
27013;SDS011;14556;52.222;4.510;2023-07-13T05:27:15;3.30;;;1.33;;
27013;SDS011;14556;52.222;4.510;2023-07-13T05:29:42;2.30;;;1.10;;
27013;SDS011;14556;52.222;4.510;2023-07-13T05:32:08;3.20;;;1.07;;
27013;SDS011;14556;52.222;4.510;2023-07-13T05:34:35;2.37;;;1.10;;
27013;SDS011;14556;52.222;4.510;2023-07-13T05:37:02;3.80;;;1.10;;
27013;SDS011;14556;52.222;4.510;2023-07-13T05:39:28;3.23;;;1.43;;
27013;SDS011;14556;52.222;4.510;2023-07-13T05:41:55;3.17;;;1.27;;
27013;SDS011;14556;52.222;4.510;2023-07-13T05:44:21;2.97;;;1.17;;
27013;SDS011;14556;52.222;4.510;2023-07-13T05:46:48;3.77;;;1.30;;
27013;SDS011;14556;52.222;4.510;2023-07-13T05:49:15;3.53;;;1.40;;
27013;SDS011;14556;52.222;4.510;2023-07-13T05:51:41;4.43;;;1.37;;
27013;SDS011;14556;52.222;4.510;2023-07-13T05:54:08;2.10;;;1.73;;
27013;SDS011;14556;52.222;4.510;2023-07-13T05:56:35;3.07;;;1.23;;
27013;SDS011;14556;52.222;4.510;2023-07-13T05:59:02;3.47;;;1.50;;
27013;SDS011;14556;52.222;4.510;2023-07-13T06:01:29;3.20;;;1.27;;
27013;SDS011;14556;52.222;4.510;2023-07-13T06:03:56;3.13;;;1.13;;
27013;SDS011;14556;52.222;4.510;2023-07-13T06:06:23;3.77;;;1.33;;
27013;SDS011;14556;52.222;4.510;2023-07-13T06:08:49;1.30;;;0.90;;
27013;SDS011;14556;52.222;4.510;2023-07-13T06:11:18;1.50;;;0.97;;
27013;SDS011;14556;52.222;4.510;2023-07-13T06:13:46;4.83;;;1.57;;
27013;SDS011;14556;52.222;4.510;2023-07-13T06:16:13;2.07;;;1.30;;
27013;SDS011;14556;52.222;4.510;2023-07-13T06:18:40;1.97;;;1.37;;
27013;SDS011;14556;52.222;4.510;2023-07-13T06:21:12;2.57;;;1.20;;
27013;SDS011;14556;52.222;4.510;2023-07-13T06:23:40;1.63;;;1.20;;
27013;SDS011;14556;52.222;4.510;2023-07-13T06:26:08;2.20;;;1.03;;
27013;SDS011;14556;52.222;4.510;2023-07-13T06:28:35;2.03;;;1.30;;
27013;SDS011;14556;52.222;4.510;2023-07-13T06:31:05;3.53;;;1.43;;
27013;SDS011;14556;52.222;4.510;2023-07-13T06:33:33;2.00;;;1.17;;
27013;SDS011;14556;52.222;4.510;2023-07-13T06:36:01;2.10;;;1.00;;
27013;SDS011;14556;52.222;4.510;2023-07-13T06:38:28;2.80;;;1.20;;
27013;SDS011;14556;52.222;4.510;2023-07-13T06:40:55;2.23;;;1.07;;
27013;SDS011;14556;52.222;4.510;2023-07-13T06:43:22;2.97;;;1.00;;
27013;SDS011;14556;52.222;4.510;2023-07-13T06:45:51;3.97;;;0.90;;
27013;SDS011;14556;52.222;4.510;2023-07-13T06:48:20;3.77;;;1.37;;
27013;SDS011;14556;52.222;4.510;2023-07-13T06:50:47;2.57;;;1.33;;
27013;SDS011;14556;52.222;4.510;2023-07-13T06:53:17;1.57;;;1.13;;
27013;SDS011;14556;52.222;4.510;2023-07-13T06:55:45;3.30;;;1.10;;
27013;SDS011;14556;52.222;4.510;2023-07-13T06:58:12;3.87;;;0.90;;
27013;SDS011;14556;52.222;4.510;2023-07-13T07:00:39;1.33;;;1.07;;
27013;SDS011;14556;52.222;4.510;2023-07-13T07:03:06;1.57;;;1.10;;
27013;SDS011;14556;52.222;4.510;2023-07-13T07:05:33;1.93;;;0.90;;
27013;SDS011;14556;52.222;4.510;2023-07-13T07:08:00;4.60;;;1.30;;
27013;SDS011;14556;52.222;4.510;2023-07-13T07:10:28;2.20;;;1.27;;
27013;SDS011;14556;52.222;4.510;2023-07-13T07:12:56;3.63;;;1.47;;
27013;SDS011;14556;52.222;4.510;2023-07-13T07:15:23;3.03;;;1.13;;
27013;SDS011;14556;52.222;4.510;2023-07-13T07:17:49;3.90;;;1.20;;
27013;SDS011;14556;52.222;4.510;2023-07-13T07:20:16;3.57;;;1.27;;
27013;SDS011;14556;52.222;4.510;2023-07-13T07:22:43;1.50;;;0.90;;
27013;SDS011;14556;52.222;4.510;2023-07-13T07:25:10;5.10;;;1.67;;
27013;SDS011;14556;52.222;4.510;2023-07-13T07:27:36;2.87;;;1.33;;
27013;SDS011;14556;52.222;4.510;2023-07-13T07:30:06;2.43;;;1.30;;
27013;SDS011;14556;52.222;4.510;2023-07-13T07:32:36;2.13;;;1.27;;
27013;SDS011;14556;52.222;4.510;2023-07-13T07:35:06;5.53;;;1.30;;
27013;SDS011;14556;52.222;4.510;2023-07-13T07:37:33;1.40;;;1.10;;
27013;SDS011;14556;52.222;4.510;2023-07-13T07:40:02;2.07;;;1.50;;
27013;SDS011;14556;52.222;4.510;2023-07-13T07:42:32;4.17;;;1.47;;
27013;SDS011;14556;52.222;4.510;2023-07-13T07:45:00;4.13;;;0.93;;
27013;SDS011;14556;52.222;4.510;2023-07-13T07:47:27;4.77;;;1.20;;
27013;SDS011;14556;52.222;4.510;2023-07-13T07:49:54;4.37;;;1.33;;
27013;SDS011;14556;52.222;4.510;2023-07-13T07:52:21;2.23;;;1.00;;
27013;SDS011;14556;52.222;4.510;2023-07-13T07:54:48;2.17;;;1.10;;
27013;SDS011;14556;52.222;4.510;2023-07-13T07:57:17;4.37;;;1.67;;
27013;SDS011;14556;52.222;4.510;2023-07-13T08:00:04;2.33;;;1.17;;
27013;SDS011;14556;52.222;4.510;2023-07-13T08:02:34;1.33;;;1.10;;
27013;SDS011;14556;52.222;4.510;2023-07-13T08:05:03;3.93;;;1.00;;
27013;SDS011;14556;52.222;4.510;2023-07-13T08:07:33;2.00;;;1.30;;
27013;SDS011;14556;52.222;4.510;2023-07-13T08:10:00;2.53;;;1.30;;
27013;SDS011;14556;52.222;4.510;2023-07-13T08:12:27;3.87;;;1.10;;
27013;SDS011;14556;52.222;4.510;2023-07-13T08:14:56;2.77;;;1.67;;
27013;SDS011;14556;52.222;4.510;2023-07-13T08:17:27;5.33;;;1.77;;
27013;SDS011;14556;52.222;4.510;2023-07-13T08:19:54;5.67;;;2.00;;
27013;SDS011;14556;52.222;4.510;2023-07-13T08:22:21;1.90;;;1.13;;
27013;SDS011;14556;52.222;4.510;2023-07-13T08:24:48;5.03;;;1.50;;
27013;SDS011;14556;52.222;4.510;2023-07-13T08:27:23;2.43;;;1.10;;
27013;SDS011;14556;52.222;4.510;2023-07-13T08:29:51;2.77;;;1.40;;
27013;SDS011;14556;52.222;4.510;2023-07-13T08:32:19;3.93;;;1.60;;
27013;SDS011;14556;52.222;4.510;2023-07-13T08:34:47;3.57;;;1.60;;
27013;SDS011;14556;52.222;4.510;2023-07-13T08:37:14;4.17;;;1.30;;
27013;SDS011;14556;52.222;4.510;2023-07-13T08:39:40;3.63;;;1.30;;
27013;SDS011;14556;52.222;4.510;2023-07-13T08:42:27;2.77;;;1.33;;
27013;SDS011;14556;52.222;4.510;2023-07-13T08:47:53;2.97;;;1.67;;
27013;SDS011;14556;52.222;4.510;2023-07-13T08:50:27;4.07;;;1.20;;
27013;SDS011;14556;52.222;4.510;2023-07-13T08:53:11;3.13;;;1.37;;
27013;SDS011;14556;52.222;4.510;2023-07-13T08:55:40;2.70;;;1.50;;
27013;SDS011;14556;52.222;4.510;2023-07-13T08:58:14;4.63;;;1.77;;
27013;SDS011;14556;52.222;4.510;2023-07-13T09:03:35;4.13;;;1.40;;
27013;SDS011;14556;52.222;4.510;2023-07-13T09:06:07;2.50;;;1.50;;
27013;SDS011;14556;52.222;4.510;2023-07-13T09:14:00;2.13;;;1.17;;
27013;SDS011;14556;52.222;4.510;2023-07-13T09:16:51;5.63;;;1.97;;
27013;SDS011;14556;52.222;4.510;2023-07-13T09:19:21;1.83;;;1.27;;
27013;SDS011;14556;52.222;4.510;2023-07-13T09:21:55;3.07;;;1.60;;
27013;SDS011;14556;52.222;4.510;2023-07-13T09:27:01;2.53;;;1.23;;
27013;SDS011;14556;52.222;4.510;2023-07-13T09:29:38;2.90;;;1.57;;
27013;SDS011;14556;52.222;4.510;2023-07-13T09:32:11;5.60;;;1.73;;
27013;SDS011;14556;52.222;4.510;2023-07-13T09:34:41;5.00;;;1.43;;
27013;SDS011;14556;52.222;4.510;2023-07-13T09:37:08;2.90;;;1.40;;
27013;SDS011;14556;52.222;4.510;2023-07-13T09:39:40;3.67;;;1.40;;
27013;SDS011;14556;52.222;4.510;2023-07-13T09:42:13;3.40;;;1.57;;
27013;SDS011;14556;52.222;4.510;2023-07-13T09:47:33;3.30;;;1.30;;
27013;SDS011;14556;52.222;4.510;2023-07-13T09:50:15;4.93;;;2.00;;
27013;SDS011;14556;52.222;4.510;2023-07-13T09:52:47;2.90;;;1.73;;
27013;SDS011;14556;52.222;4.510;2023-07-13T09:58:14;6.93;;;1.60;;
27013;SDS011;14556;52.222;4.510;2023-07-13T10:00:42;2.43;;;1.37;;
27013;SDS011;14556;52.222;4.510;2023-07-13T10:03:20;3.07;;;1.30;;
27013;SDS011;14556;52.222;4.510;2023-07-13T10:05:49;2.10;;;1.53;;
27013;SDS011;14556;52.222;4.510;2023-07-13T10:08:24;5.43;;;1.60;;
27013;SDS011;14556;52.222;4.510;2023-07-13T10:10:58;3.37;;;1.40;;
27013;SDS011;14556;52.222;4.510;2023-07-13T10:13:36;3.70;;;1.83;;
27013;SDS011;14556;52.222;4.510;2023-07-13T10:16:06;3.73;;;1.53;;
27013;SDS011;14556;52.222;4.510;2023-07-13T10:18:38;2.67;;;1.70;;
27013;SDS011;14556;52.222;4.510;2023-07-13T10:21:32;3.27;;;1.17;;
27013;SDS011;14556;52.222;4.510;2023-07-13T10:24:15;6.60;;;1.60;;
27013;SDS011;14556;52.222;4.510;2023-07-13T10:27:33;3.67;;;1.57;;
27013;SDS011;14556;52.222;4.510;2023-07-13T10:29:38;2.80;;;1.37;;
27013;SDS011;14556;52.222;4.510;2023-07-13T10:32:10;4.30;;;1.57;;
27013;SDS011;14556;52.222;4.510;2023-07-13T10:34:39;3.03;;;1.40;;
27013;SDS011;14556;52.222;4.510;2023-07-13T10:37:18;3.07;;;1.60;;
27013;SDS011;14556;52.222;4.510;2023-07-13T10:39:49;2.07;;;1.37;;
27013;SDS011;14556;52.222;4.510;2023-07-13T10:42:26;4.00;;;1.30;;
27013;SDS011;14556;52.222;4.510;2023-07-13T10:44:55;1.77;;;1.20;;
27013;SDS011;14556;52.222;4.510;2023-07-13T10:47:24;2.20;;;1.50;;
27013;SDS011;14556;52.222;4.510;2023-07-13T10:49:54;4.77;;;1.33;;
27013;SDS011;14556;52.222;4.510;2023-07-13T10:55:32;2.53;;;1.47;;
27013;SDS011;14556;52.222;4.510;2023-07-13T10:58:13;2.70;;;1.40;;
27013;SDS011;14556;52.222;4.510;2023-07-13T11:00:49;3.10;;;1.43;;
27013;SDS011;14556;52.222;4.510;2023-07-13T11:03:35;2.43;;;1.20;;
27013;SDS011;14556;52.222;4.510;2023-07-13T11:06:07;5.47;;;1.77;;
27013;SDS011;14556;52.222;4.510;2023-07-13T11:08:38;2.13;;;1.27;;
27013;SDS011;14556;52.222;4.510;2023-07-13T11:11:39;3.53;;;1.37;;
27013;SDS011;14556;52.222;4.510;2023-07-13T11:14:25;2.07;;;1.23;;
27013;SDS011;14556;52.222;4.510;2023-07-13T11:16:51;3.70;;;1.80;;
27013;SDS011;14556;52.222;4.510;2023-07-13T11:22:41;4.37;;;1.60;;
27013;SDS011;14556;52.222;4.510;2023-07-13T11:27:41;3.63;;;1.73;;
27013;SDS011;14556;52.222;4.510;2023-07-13T11:30:23;2.80;;;1.47;;
27013;SDS011;14556;52.222;4.510;2023-07-13T11:36:00;3.50;;;1.80;;
27013;SDS011;14556;52.222;4.510;2023-07-13T11:41:01;3.17;;;1.53;;
27013;SDS011;14556;52.222;4.510;2023-07-13T11:43:30;4.40;;;2.07;;
27013;SDS011;14556;52.222;4.510;2023-07-13T11:46:13;4.80;;;1.77;;
27013;SDS011;14556;52.222;4.510;2023-07-13T11:48:41;4.03;;;1.40;;
27013;SDS011;14556;52.222;4.510;2023-07-13T11:51:18;3.43;;;1.83;;
27013;SDS011;14556;52.222;4.510;2023-07-13T11:53:49;4.13;;;1.60;;
27013;SDS011;14556;52.222;4.510;2023-07-13T11:56:17;3.43;;;2.03;;
27013;SDS011;14556;52.222;4.510;2023-07-13T11:58:44;4.17;;;1.63;;
27013;SDS011;14556;52.222;4.510;2023-07-13T12:01:15;2.23;;;1.60;;
27013;SDS011;14556;52.222;4.510;2023-07-13T12:03:46;2.77;;;1.70;;
27013;SDS011;14556;52.222;4.510;2023-07-13T12:06:27;3.47;;;1.83;;
27013;SDS011;14556;52.222;4.510;2023-07-13T12:08:58;5.13;;;1.83;;
27013;SDS011;14556;52.222;4.510;2023-07-13T12:11:30;4.40;;;1.93;;
27013;SDS011;14556;52.222;4.510;2023-07-13T12:14:01;4.97;;;2.20;;
27013;SDS011;14556;52.222;4.510;2023-07-13T12:16:31;3.10;;;1.50;;
27013;SDS011;14556;52.222;4.510;2023-07-13T12:19:00;2.47;;;1.33;;
27013;SDS011;14556;52.222;4.510;2023-07-13T12:21:31;5.20;;;1.90;;
27013;SDS011;14556;52.222;4.510;2023-07-13T12:24:00;3.03;;;1.50;;
27013;SDS011;14556;52.222;4.510;2023-07-13T12:26:30;4.13;;;1.30;;
27013;SDS011;14556;52.222;4.510;2023-07-13T12:28:59;2.63;;;1.30;;
27013;SDS011;14556;52.222;4.510;2023-07-13T12:31:37;3.13;;;1.30;;
27013;SDS011;14556;52.222;4.510;2023-07-13T12:34:18;2.43;;;1.60;;
27013;SDS011;14556;52.222;4.510;2023-07-13T12:39:17;2.43;;;1.63;;
27013;SDS011;14556;52.222;4.510;2023-07-13T12:41:47;2.20;;;1.37;;
27013;SDS011;14556;52.222;4.510;2023-07-13T12:44:25;3.97;;;1.93;;
27013;SDS011;14556;52.222;4.510;2023-07-13T12:47:05;2.83;;;1.27;;
27013;SDS011;14556;52.222;4.510;2023-07-13T12:49:42;2.73;;;1.53;;
27013;SDS011;14556;52.222;4.510;2023-07-13T12:52:16;3.03;;;1.20;;
27013;SDS011;14556;52.222;4.510;2023-07-13T12:54:53;3.30;;;1.67;;
27013;SDS011;14556;52.222;4.510;2023-07-13T12:57:32;2.90;;;1.30;;
27013;SDS011;14556;52.222;4.510;2023-07-13T13:00:09;4.00;;;1.60;;
27013;SDS011;14556;52.222;4.510;2023-07-13T13:02:52;3.03;;;1.43;;
27013;SDS011;14556;52.222;4.510;2023-07-13T13:05:42;2.13;;;1.50;;
27013;SDS011;14556;52.222;4.510;2023-07-13T13:08:10;2.40;;;1.13;;
27013;SDS011;14556;52.222;4.510;2023-07-13T13:10:37;3.83;;;1.57;;
27013;SDS011;14556;52.222;4.510;2023-07-13T13:13:04;2.53;;;1.50;;
27013;SDS011;14556;52.222;4.510;2023-07-13T13:15:31;4.00;;;1.50;;
27013;SDS011;14556;52.222;4.510;2023-07-13T13:17:59;3.67;;;1.67;;
27013;SDS011;14556;52.222;4.510;2023-07-13T13:20:25;4.03;;;1.73;;
27013;SDS011;14556;52.222;4.510;2023-07-13T13:22:53;2.03;;;1.70;;
27013;SDS011;14556;52.222;4.510;2023-07-13T13:25:20;3.87;;;1.57;;
27013;SDS011;14556;52.222;4.510;2023-07-13T13:27:46;1.77;;;1.27;;
27013;SDS011;14556;52.222;4.510;2023-07-13T13:30:14;4.23;;;1.63;;
27013;SDS011;14556;52.222;4.510;2023-07-13T13:32:45;1.73;;;1.40;;
27013;SDS011;14556;52.222;4.510;2023-07-13T13:35:14;3.07;;;1.60;;
27013;SDS011;14556;52.222;4.510;2023-07-13T13:37:44;4.07;;;1.70;;
27013;SDS011;14556;52.222;4.510;2023-07-13T13:40:19;3.70;;;1.60;;
27013;SDS011;14556;52.222;4.510;2023-07-13T13:42:47;2.80;;;1.30;;
27013;SDS011;14556;52.222;4.510;2023-07-13T13:45:14;3.60;;;1.60;;
27013;SDS011;14556;52.222;4.510;2023-07-13T13:47:42;1.83;;;1.40;;
27013;SDS011;14556;52.222;4.510;2023-07-13T13:50:20;3.47;;;1.53;;
27013;SDS011;14556;52.222;4.510;2023-07-13T13:52:51;2.70;;;1.60;;
27013;SDS011;14556;52.222;4.510;2023-07-13T13:55:18;2.63;;;1.43;;
27013;SDS011;14556;52.222;4.510;2023-07-13T13:57:47;4.53;;;2.13;;
27013;SDS011;14556;52.222;4.510;2023-07-13T14:00:14;6.37;;;1.33;;
27013;SDS011;14556;52.222;4.510;2023-07-13T14:02:44;3.23;;;1.50;;
27013;SDS011;14556;52.222;4.510;2023-07-13T14:05:15;3.07;;;1.30;;
27013;SDS011;14556;52.222;4.510;2023-07-13T14:07:45;2.73;;;1.30;;
27013;SDS011;14556;52.222;4.510;2023-07-13T14:10:14;2.97;;;1.20;;
27013;SDS011;14556;52.222;4.510;2023-07-13T14:12:42;1.70;;;1.13;;
27013;SDS011;14556;52.222;4.510;2023-07-13T14:15:17;3.00;;;1.30;;
27013;SDS011;14556;52.222;4.510;2023-07-13T14:17:46;3.90;;;1.40;;
27013;SDS011;14556;52.222;4.510;2023-07-13T14:20:17;4.57;;;1.63;;
27013;SDS011;14556;52.222;4.510;2023-07-13T14:22:46;3.67;;;1.23;;
27013;SDS011;14556;52.222;4.510;2023-07-13T14:25:13;2.00;;;1.50;;
27013;SDS011;14556;52.222;4.510;2023-07-13T14:27:41;4.40;;;1.57;;
27013;SDS011;14556;52.222;4.510;2023-07-13T14:30:13;3.73;;;1.80;;
27013;SDS011;14556;52.222;4.510;2023-07-13T14:32:41;6.20;;;1.40;;
27013;SDS011;14556;52.222;4.510;2023-07-13T14:35:10;2.07;;;0.97;;
27013;SDS011;14556;52.222;4.510;2023-07-13T14:37:39;3.57;;;1.50;;
27013;SDS011;14556;52.222;4.510;2023-07-13T14:40:17;2.20;;;1.30;;
27013;SDS011;14556;52.222;4.510;2023-07-13T14:42:51;3.93;;;1.40;;
27013;SDS011;14556;52.222;4.510;2023-07-13T14:45:18;2.67;;;1.50;;
27013;SDS011;14556;52.222;4.510;2023-07-13T14:47:46;3.23;;;1.57;;
27013;SDS011;14556;52.222;4.510;2023-07-13T14:50:17;2.07;;;1.40;;
27013;SDS011;14556;52.222;4.510;2023-07-13T14:52:53;2.60;;;1.30;;
27013;SDS011;14556;52.222;4.510;2023-07-13T14:55:19;3.07;;;1.33;;
27013;SDS011;14556;52.222;4.510;2023-07-13T14:57:46;3.80;;;1.67;;
27013;SDS011;14556;52.222;4.510;2023-07-13T15:02:42;4.37;;;1.30;;
27013;SDS011;14556;52.222;4.510;2023-07-13T15:05:19;2.67;;;1.37;;
27013;SDS011;14556;52.222;4.510;2023-07-13T15:07:49;3.03;;;1.47;;
27013;SDS011;14556;52.222;4.510;2023-07-13T15:10:19;5.67;;;1.30;;
27013;SDS011;14556;52.222;4.510;2023-07-13T15:12:51;2.43;;;1.00;;
27013;SDS011;14556;52.222;4.510;2023-07-13T15:15:19;1.70;;;1.20;;
27013;SDS011;14556;52.222;4.510;2023-07-13T15:17:46;3.73;;;1.10;;
27013;SDS011;14556;52.222;4.510;2023-07-13T15:20:28;1.30;;;1.20;;
27013;SDS011;14556;52.222;4.510;2023-07-13T15:22:59;3.10;;;1.37;;
27013;SDS011;14556;52.222;4.510;2023-07-13T15:25:27;3.20;;;1.00;;
27013;SDS011;14556;52.222;4.510;2023-07-13T15:27:57;4.03;;;1.33;;
27013;SDS011;14556;52.222;4.510;2023-07-13T15:30:29;2.33;;;1.50;;
27013;SDS011;14556;52.222;4.510;2023-07-13T15:32:58;4.47;;;1.57;;
27013;SDS011;14556;52.222;4.510;2023-07-13T15:35:33;2.77;;;1.50;;
27013;SDS011;14556;52.222;4.510;2023-07-13T15:38:00;3.63;;;1.50;;
27013;SDS011;14556;52.222;4.510;2023-07-13T15:40:27;2.87;;;1.30;;
27013;SDS011;14556;52.222;4.510;2023-07-13T15:42:54;1.07;;;0.97;;
27013;SDS011;14556;52.222;4.510;2023-07-13T15:45:22;3.20;;;1.27;;